Accueil
METAR-TAF:

METAR-TAF

Aéroports :

Aéroport de Calvi-Sainte-Catherine

Calvi, France

latitude: 42-32N, longitude: 008-48E, altitude: 64 m

Observation

Le bulletin a été fait il y a 39 minutes, à 16:30 UTC
Vent 10 kt de nord, variant entre ouest/nord-ouest et nord-est
Température 29°C
Humidité 52%
Pression 1013 hPa
Visibilité 10 km ou plus
pas de nuages en-dessous de 1500 mètres et pas de cumulonimbus.

METAR: LFKC 281630Z AUTO 35010KT 300V050 CAVOK 29/18 Q1013 BECMG 18004KT

Heure: 19:09 (17:09 UTC)

Prévision

Le bulletin a été fait il y a 3 heures et 9 minutes, à 14:00 UTC
Prévision valable du 28 à 15 UTC au 29 à 15 UTC
Vent 10 kt de nord
Visibilité 10 km ou plus
pas de nuages en-dessous de 1500 mètres et pas de cumulonimbus.
Evoluant progressivement
du 28 à 18 UTC au 28 à 20 UTC
Vent 4 kt de sud

TAF: LFKC 281400Z 2815/2915 36010KT CAVOK TX31/2912Z TN23/2904Z BECMG 2818/2820 18004KT

Observations et prévisions météorologiques de plus de 4000 aéroports (messages METAR et TAF).

Les stations disponibles sont représentées par des disques jaunes et rouges sur la carte.

Passer la souris dessus pour voir le nom de la station.

Cliquer dessus pour voir les observations et prévisions météorologiques.

Pour changer de carte: cliquez sur les boutons verts avec une croix noire pour zoomer, sur le bouton vert avec un tiret pour effectuer un zoom arrière, ou sur les flèches vertes pour les cartes adjacentes.


METAR-TAF: